createdAt,value
2023-04-28T00:00:14.789Z,101163.00
2023-04-28T00:02:41.764Z,101169.00
2023-04-28T00:05:09.076Z,101173.00
2023-04-28T00:07:35.808Z,101174.00
2023-04-28T00:10:02.470Z,101182.00
2023-04-28T00:12:29.305Z,101182.00
2023-04-28T00:14:55.958Z,101185.00
2023-04-28T00:17:22.720Z,101182.00
2023-04-28T00:19:50.513Z,101163.00
2023-04-28T00:22:17.214Z,101157.00
2023-04-28T00:24:43.801Z,101151.00
2023-04-28T00:27:10.759Z,101144.00
2023-04-28T00:29:37.572Z,101127.00
2023-04-28T00:32:04.391Z,101099.00
2023-04-28T00:34:34.522Z,101075.00
2023-04-28T00:37:01.268Z,101062.00
2023-04-28T00:39:28.268Z,101055.00
2023-04-28T00:41:54.999Z,101070.00
2023-04-28T00:44:21.760Z,101070.00
2023-04-28T00:46:48.826Z,101060.00
2023-04-28T00:49:16.732Z,101048.00
2023-04-28T00:51:43.416Z,101055.00
2023-04-28T00:54:14.437Z,101052.00
2023-04-28T00:56:41.517Z,101031.00
2023-04-28T00:59:08.296Z,101035.00
2023-04-28T01:01:36.805Z,101034.00
2023-04-28T01:04:03.787Z,101025.00
2023-04-28T01:06:31.938Z,101033.00
2023-04-28T01:08:58.750Z,101041.00
2023-04-28T01:11:25.552Z,101037.00
2023-04-28T01:13:52.797Z,101026.00
2023-04-28T01:16:19.649Z,101034.00
2023-04-28T01:18:48.144Z,101035.00
2023-04-28T01:21:14.799Z,101031.00
2023-04-28T01:23:41.420Z,101039.00
2023-04-28T01:26:08.086Z,101028.00
2023-04-28T01:28:34.761Z,101017.00
2023-04-28T01:31:01.454Z,101012.00
2023-04-28T01:33:28.074Z,101009.00
2023-04-28T01:35:58.578Z,101012.00
2023-04-28T01:38:25.347Z,101016.00
2023-04-28T01:40:51.992Z,101018.00
2023-04-28T01:43:18.989Z,101017.00
2023-04-28T01:45:45.941Z,101005.00
2023-04-28T01:48:12.631Z,101001.00
2023-04-28T01:50:39.236Z,100999.00
2023-04-28T01:53:05.888Z,101017.00
2023-04-28T01:55:32.541Z,101007.00
2023-04-28T01:57:59.177Z,101011.00
2023-04-28T02:00:27.229Z,101012.00
2023-04-28T02:02:53.978Z,101012.00
2023-04-28T02:05:20.698Z,101007.00
2023-04-28T02:07:47.393Z,101006.00
2023-04-28T02:10:14.103Z,100999.00
2023-04-28T02:12:42.728Z,100990.00
2023-04-28T02:15:09.852Z,100991.00
2023-04-28T02:17:36.549Z,100990.00
2023-04-28T02:20:03.394Z,100992.00
2023-04-28T02:22:30.051Z,100989.00
2023-04-28T02:24:57.528Z,100983.00
2023-04-28T02:27:24.151Z,100975.00
2023-04-28T02:29:50.733Z,100980.00
2023-04-28T02:32:17.370Z,100973.00
2023-04-28T02:34:44.083Z,100972.00
2023-04-28T02:37:10.679Z,100969.00
2023-04-28T02:39:37.770Z,100972.00
2023-04-28T02:42:05.510Z,100969.00
2023-04-28T02:44:32.177Z,100965.00
2023-04-28T02:46:58.890Z,100962.00
2023-04-28T02:49:25.540Z,100956.00
2023-04-28T02:51:52.392Z,100963.00
2023-04-28T02:54:27.508Z,100958.00
2023-04-28T02:56:58.110Z,100959.00
2023-04-28T02:59:25.579Z,100966.00
2023-04-28T03:01:52.239Z,100960.00
2023-04-28T03:04:20.565Z,100962.00
2023-04-28T03:06:47.581Z,100962.00
2023-04-28T03:09:14.761Z,100963.00
2023-04-28T03:11:41.472Z,100955.00
2023-04-28T03:14:08.101Z,100952.00
2023-04-28T03:16:34.830Z,100955.00
2023-04-28T03:19:01.818Z,100965.00
2023-04-28T03:21:29.057Z,100952.00
2023-04-28T03:23:55.703Z,100938.00
2023-04-28T03:26:25.398Z,100943.00
2023-04-28T03:28:52.049Z,100936.00
2023-04-28T03:31:21.475Z,100944.00
2023-04-28T03:33:48.152Z,100938.00
2023-04-28T03:36:14.725Z,100941.00
2023-04-28T03:38:41.903Z,100932.00
2023-04-28T03:41:08.535Z,100924.00
2023-04-28T03:43:37.449Z,100929.00
2023-04-28T03:46:07.378Z,100932.00
2023-04-28T03:48:34.366Z,100933.00
2023-04-28T03:51:01.088Z,100927.00
2023-04-28T03:53:27.846Z,100932.00
2023-04-28T03:55:54.598Z,100922.00
2023-04-28T03:58:21.438Z,100932.00
2023-04-28T04:00:48.163Z,100925.00
2023-04-28T04:03:14.978Z,100921.00
2023-04-28T04:05:41.877Z,100918.00
2023-04-28T04:08:09.100Z,100919.00
2023-04-28T04:10:35.711Z,100918.00
2023-04-28T04:13:02.292Z,100921.00
2023-04-28T04:15:29.159Z,100915.00
2023-04-28T04:17:55.877Z,100922.00
2023-04-28T04:20:22.577Z,100920.00
2023-04-28T04:22:49.221Z,100922.00
2023-04-28T04:25:15.923Z,100925.00
2023-04-28T04:27:42.681Z,100927.00
2023-04-28T04:30:09.760Z,100922.00
2023-04-28T04:32:36.374Z,100924.00
2023-04-28T04:35:03.030Z,100916.00
2023-04-28T04:37:29.767Z,100923.00
2023-04-28T04:39:56.407Z,100912.00
2023-04-28T04:42:25.830Z,100924.00
2023-04-28T04:44:52.625Z,100921.00
2023-04-28T04:47:19.296Z,100915.00
2023-04-28T04:49:45.937Z,100915.00
2023-04-28T04:52:12.573Z,100929.00
2023-04-28T04:54:39.260Z,100927.00
2023-04-28T04:57:06.870Z,100926.00
2023-04-28T04:59:33.579Z,100923.00
2023-04-28T05:02:00.372Z,100925.00
2023-04-28T05:04:27.284Z,100926.00
2023-04-28T05:06:53.949Z,100930.00
2023-04-28T05:09:20.540Z,100928.00
2023-04-28T05:11:47.275Z,100931.00
2023-04-28T05:14:14.060Z,100933.00
2023-04-28T05:16:42.101Z,100932.00
2023-04-28T05:19:08.808Z,100933.00
2023-04-28T05:21:35.910Z,100938.00
2023-04-28T05:24:02.565Z,100936.00
2023-04-28T05:26:29.152Z,100935.00
2023-04-28T05:28:55.775Z,100937.00
2023-04-28T05:31:22.400Z,100932.00
2023-04-28T05:33:49.153Z,100935.00
2023-04-28T05:36:17.185Z,100937.00
2023-04-28T05:38:44.306Z,100948.00
2023-04-28T05:41:11.308Z,100947.00
2023-04-28T05:43:38.064Z,100954.00
2023-04-28T05:46:09.693Z,100952.00
2023-04-28T05:48:41.517Z,100955.00
2023-04-28T05:51:08.127Z,100963.00
2023-04-28T05:53:34.713Z,100967.00
2023-04-28T05:56:01.407Z,100963.00
2023-04-28T05:58:28.075Z,100961.00
2023-04-28T06:00:55.189Z,100966.00
2023-04-28T06:03:22.017Z,100972.00
2023-04-28T06:05:49.272Z,100969.00
2023-04-28T06:08:16.320Z,100965.00
2023-04-28T06:10:42.946Z,100971.00
2023-04-28T06:13:09.663Z,100968.00
2023-04-28T06:15:36.358Z,100977.00
2023-04-28T06:18:03.571Z,100977.00
2023-04-28T06:20:30.230Z,100975.00
2023-04-28T06:22:56.844Z,100979.00
2023-04-28T06:25:23.457Z,100986.00
2023-04-28T06:27:50.348Z,100987.00
2023-04-28T06:30:21.446Z,100991.00
2023-04-28T06:32:48.099Z,100988.00
2023-04-28T06:35:16.461Z,100979.00
2023-04-28T06:37:43.195Z,100977.00
2023-04-28T06:40:10.707Z,100986.00
2023-04-28T06:42:37.369Z,100984.00
2023-04-28T06:45:04.163Z,100993.00
2023-04-28T06:47:31.278Z,100988.00
2023-04-28T06:49:57.980Z,100984.00
2023-04-28T06:52:33.455Z,100990.00
2023-04-28T06:55:07.782Z,100991.00
2023-04-28T06:57:34.316Z,100993.00
2023-04-28T07:00:01.022Z,100998.00
2023-04-28T07:02:27.947Z,101001.00
2023-04-28T07:04:55.462Z,101007.00
2023-04-28T07:07:22.214Z,101006.00
2023-04-28T07:09:48.859Z,100999.00
2023-04-28T07:12:15.560Z,100997.00
2023-04-28T07:14:42.194Z,101003.00
2023-04-28T07:17:08.972Z,101012.00
2023-04-28T07:19:35.768Z,101010.00
2023-04-28T07:22:02.548Z,101007.00
2023-04-28T07:24:29.387Z,101008.00
2023-04-28T07:26:56.251Z,101014.00
2023-04-28T07:29:23.317Z,101019.00
2023-04-28T07:31:50.519Z,101013.00
2023-04-28T07:34:17.463Z,101008.00
2023-04-28T07:36:44.406Z,101018.00
2023-04-28T07:39:11.178Z,101021.00
2023-04-28T07:41:38.518Z,101010.00
2023-04-28T07:44:07.653Z,101008.00
2023-04-28T07:46:35.190Z,101003.00
2023-04-28T07:49:02.984Z,101009.00
2023-04-28T07:51:29.745Z,101002.00
2023-04-28T07:53:59.215Z,101016.00
2023-04-28T07:56:26.573Z,101009.00
2023-04-28T07:58:53.531Z,101013.00
2023-04-28T08:01:20.274Z,101009.00
2023-04-28T08:03:47.032Z,101014.00
2023-04-28T08:06:14.040Z,101015.00
2023-04-28T08:08:40.760Z,101024.00
2023-04-28T08:11:08.352Z,101020.00
2023-04-28T08:13:35.290Z,101014.00
2023-04-28T08:16:02.150Z,101017.00
2023-04-28T08:18:29.280Z,101016.00
2023-04-28T08:20:56.139Z,101017.00
2023-04-28T08:23:22.836Z,101014.00
2023-04-28T08:25:50.543Z,101022.00
2023-04-28T08:28:17.138Z,101026.00
2023-04-28T08:30:43.774Z,101024.00
2023-04-28T08:33:10.484Z,101024.00
2023-04-28T08:35:37.248Z,101033.00
2023-04-28T08:38:04.228Z,101023.00
2023-04-28T08:40:31.558Z,101031.00
2023-04-28T08:42:58.565Z,101039.00
2023-04-28T08:45:27.239Z,101038.00
2023-04-28T08:47:56.282Z,101041.00
2023-04-28T08:50:23.406Z,101047.00
2023-04-28T08:52:52.463Z,101048.00
2023-04-28T08:55:19.700Z,101053.00
2023-04-28T08:57:51.991Z,101051.00
2023-04-28T09:00:18.821Z,101052.00
2023-04-28T09:02:45.594Z,101055.00
2023-04-28T09:05:14.027Z,101052.00
2023-04-28T09:07:41.622Z,101045.00
2023-04-28T09:10:25.017Z,101044.00
2023-04-28T09:12:53.507Z,101045.00
2023-04-28T09:15:37.448Z,101048.00
2023-04-28T09:18:06.588Z,101047.00
2023-04-28T09:20:34.933Z,101050.00
2023-04-28T09:23:18.794Z,101047.00
2023-04-28T09:25:59.287Z,101046.00
2023-04-28T09:28:26.088Z,101047.00
2023-04-28T09:30:53.101Z,101049.00
2023-04-28T09:33:21.019Z,101055.00
2023-04-28T09:35:48.725Z,101055.00
2023-04-28T09:38:16.401Z,101051.00
2023-04-28T09:41:02.805Z,101058.00
2023-04-28T09:43:30.659Z,101058.00
2023-04-28T09:45:59.508Z,101059.00
2023-04-28T09:48:32.149Z,101069.00
2023-04-28T09:51:00.848Z,101069.00
2023-04-28T09:53:28.382Z,101071.00
2023-04-28T09:55:58.206Z,101070.00
2023-04-28T09:58:27.564Z,101076.00
2023-04-28T10:00:59.375Z,101077.00
2023-04-28T10:03:29.636Z,101080.00
2023-04-28T10:05:58.687Z,101082.00
2023-04-28T10:08:27.455Z,101081.00
2023-04-28T10:10:55.530Z,101082.00
2023-04-28T10:13:30.097Z,101085.00
2023-04-28T10:15:58.587Z,101076.00
2023-04-28T10:18:25.872Z,101084.00
2023-04-28T10:21:00.893Z,101086.00
2023-04-28T10:23:51.016Z,101087.00
2023-04-28T10:26:20.151Z,101087.00
2023-04-28T10:28:48.669Z,101082.00
2023-04-28T10:31:21.362Z,101090.00
2023-04-28T10:33:49.820Z,101091.00
2023-04-28T10:36:44.294Z,101099.00
2023-04-28T10:39:14.355Z,101096.00
2023-04-28T10:41:41.848Z,101100.00
2023-04-28T10:44:30.190Z,101096.00
2023-04-28T10:47:09.840Z,101109.00
2023-04-28T10:49:56.216Z,101109.00
2023-04-28T10:52:38.568Z,101116.00
2023-04-28T10:55:27.171Z,101109.00
2023-04-28T10:58:16.881Z,101109.00
2023-04-28T11:00:45.525Z,101120.00
2023-04-28T11:03:37.325Z,101114.00
2023-04-28T11:06:34.445Z,101120.00
2023-04-28T11:09:01.908Z,101121.00
2023-04-28T11:11:39.266Z,101122.00
2023-04-28T11:14:18.361Z,101119.00
2023-04-28T11:17:08.754Z,101124.00
2023-04-28T11:19:43.643Z,101121.00
2023-04-28T11:22:18.840Z,101123.00
2023-04-28T11:24:59.659Z,101126.00
2023-04-28T11:27:28.212Z,101124.00
2023-04-28T11:29:55.917Z,101134.00
2023-04-28T11:32:33.910Z,101124.00
2023-04-28T11:35:00.574Z,101126.00
2023-04-28T11:37:27.438Z,101121.00
2023-04-28T11:39:54.261Z,101122.00
2023-04-28T11:42:21.305Z,101122.00
2023-04-28T11:44:54.943Z,101125.00
2023-04-28T11:47:32.909Z,101133.00
2023-04-28T11:50:01.355Z,101133.00
2023-04-28T11:52:28.181Z,101145.00
2023-04-28T11:55:00.293Z,101143.00
2023-04-28T11:57:27.700Z,101143.00
2023-04-28T11:59:54.555Z,101143.00
2023-04-28T12:02:29.878Z,101147.00
2023-04-28T12:04:57.240Z,101146.00
2023-04-28T12:07:24.650Z,101144.00
2023-04-28T12:10:11.282Z,101156.00
2023-04-28T12:15:08.547Z,101154.00
2023-04-28T12:17:40.184Z,101156.00
2023-04-28T12:20:11.973Z,101153.00
2023-04-28T12:22:49.685Z,101156.00
2023-04-28T12:25:19.471Z,101157.00
2023-04-28T12:27:59.516Z,101166.00
2023-04-28T12:30:27.535Z,101161.00
2023-04-28T12:32:56.010Z,101167.00
2023-04-28T12:35:23.923Z,101166.00
2023-04-28T12:37:50.576Z,101171.00
2023-04-28T12:40:17.265Z,101169.00
2023-04-28T12:42:43.951Z,101176.00
2023-04-28T12:45:10.996Z,101171.00
2023-04-28T12:47:38.797Z,101182.00
2023-04-28T12:50:06.858Z,101180.00
2023-04-28T12:52:35.637Z,101180.00
2023-04-28T12:55:03.273Z,101177.00
2023-04-28T12:57:30.030Z,101185.00
2023-04-28T12:59:57.306Z,101180.00
2023-04-28T13:02:24.461Z,101180.00
2023-04-28T13:04:52.219Z,101178.00
2023-04-28T13:07:19.324Z,101179.00
2023-04-28T13:09:47.623Z,101184.00
2023-04-28T13:12:15.004Z,101178.00
2023-04-28T13:14:42.062Z,101183.00
2023-04-28T13:17:10.197Z,101186.00
2023-04-28T13:19:37.488Z,101189.00
2023-04-28T13:22:06.057Z,101191.00
2023-04-28T13:24:36.246Z,101186.00
2023-04-28T13:27:04.309Z,101193.00
2023-04-28T13:29:31.027Z,101198.00
2023-04-28T13:31:57.694Z,101205.00
2023-04-28T13:34:24.400Z,101206.00
2023-04-28T13:36:54.081Z,101206.00
2023-04-28T13:39:22.178Z,101204.00
2023-04-28T13:41:49.545Z,101207.00
2023-04-28T13:44:16.869Z,101207.00
2023-04-28T13:46:43.899Z,101209.00
2023-04-28T13:49:11.096Z,101218.00
2023-04-28T13:51:39.010Z,101210.00
2023-04-28T13:54:08.838Z,101212.00
2023-04-28T13:56:36.680Z,101227.00
2023-04-28T13:59:03.583Z,101223.00
2023-04-28T14:01:30.346Z,101233.00
2023-04-28T14:03:57.356Z,101218.00
2023-04-28T14:06:24.488Z,101229.00
2023-04-28T14:08:51.160Z,101220.00
2023-04-28T14:11:17.968Z,101222.00
2023-04-28T14:13:44.642Z,101225.00
2023-04-28T14:16:12.081Z,101223.00
2023-04-28T14:18:38.887Z,101227.00
2023-04-28T14:21:08.616Z,101230.00
2023-04-28T14:23:35.704Z,101239.00
2023-04-28T14:26:02.669Z,101237.00
2023-04-28T14:28:29.655Z,101235.00
2023-04-28T14:30:56.880Z,101228.00
2023-04-28T14:33:24.439Z,101228.00
2023-04-28T14:35:51.244Z,101221.00
2023-04-28T14:38:18.017Z,101224.00
2023-04-28T14:40:44.930Z,101231.00
2023-04-28T14:43:11.572Z,101228.00
2023-04-28T14:45:38.483Z,101229.00
2023-04-28T14:48:07.137Z,101231.00
2023-04-28T14:50:34.442Z,101232.00
2023-04-28T14:53:05.608Z,101233.00
2023-04-28T14:55:33.206Z,101229.00
2023-04-28T14:57:59.898Z,101239.00
2023-04-28T15:00:26.621Z,101238.00
2023-04-28T15:02:53.935Z,101235.00
2023-04-28T15:05:22.008Z,101243.00
2023-04-28T15:07:48.651Z,101236.00
2023-04-28T15:10:15.408Z,101243.00
2023-04-28T15:12:42.955Z,101249.00
2023-04-28T15:15:10.241Z,101245.00
2023-04-28T15:17:36.960Z,101248.00
2023-04-28T15:20:04.857Z,101254.00
2023-04-28T15:22:31.656Z,101249.00
2023-04-28T15:24:58.394Z,101247.00
2023-04-28T15:27:25.232Z,101255.00
2023-04-28T15:29:51.994Z,101256.00
2023-04-28T15:32:19.214Z,101254.00
2023-04-28T15:34:46.074Z,101259.00
2023-04-28T15:37:38.654Z,101261.00
2023-04-28T15:40:06.176Z,101249.00
2023-04-28T15:42:33.101Z,101249.00
2023-04-28T15:44:59.977Z,101254.00
2023-04-28T15:47:26.745Z,101259.00
2023-04-28T15:49:53.952Z,101255.00
2023-04-28T15:52:22.511Z,101250.00
2023-04-28T15:54:49.362Z,101255.00
2023-04-28T15:57:16.241Z,101261.00
2023-04-28T15:59:43.643Z,101255.00
2023-04-28T16:02:10.377Z,101262.00
2023-04-28T16:04:37.266Z,101267.00
2023-04-28T16:07:04.466Z,101272.00
2023-04-28T16:09:32.479Z,101265.00
2023-04-28T16:11:59.786Z,101268.00
2023-04-28T16:14:27.122Z,101278.00
2023-04-28T16:16:54.028Z,101278.00
2023-04-28T16:19:21.797Z,101281.00
2023-04-28T16:21:48.560Z,101276.00
2023-04-28T16:24:15.254Z,101291.00
2023-04-28T16:26:42.067Z,101294.00
2023-04-28T16:29:08.880Z,101292.00
2023-04-28T16:31:36.345Z,101293.00
2023-04-28T16:34:03.850Z,101288.00
2023-04-28T16:36:32.982Z,101294.00
2023-04-28T16:38:59.785Z,101303.00
2023-04-28T16:41:26.466Z,101301.00
2023-04-28T16:43:53.019Z,101296.00
2023-04-28T16:46:19.723Z,101296.00
2023-04-28T16:48:46.442Z,101300.00
2023-04-28T16:51:13.053Z,101306.00
2023-04-28T16:53:39.900Z,101308.00
2023-04-28T16:56:08.424Z,101317.00
2023-04-28T16:58:36.960Z,101336.00
2023-04-28T17:01:03.730Z,101333.00
2023-04-28T17:03:30.966Z,101341.00
2023-04-28T17:05:59.339Z,101347.00
2023-04-28T17:08:26.147Z,101347.00
2023-04-28T17:10:52.763Z,101350.00
2023-04-28T17:13:19.483Z,101352.00
2023-04-28T17:15:46.224Z,101363.00
2023-04-28T17:18:12.981Z,101365.00
2023-04-28T17:20:40.084Z,101369.00
2023-04-28T17:23:06.783Z,101374.00
2023-04-28T17:25:33.420Z,101377.00
2023-04-28T17:28:00.160Z,101373.00
2023-04-28T17:30:26.807Z,101372.00
2023-04-28T17:32:53.656Z,101375.00
2023-04-28T17:35:22.991Z,101373.00
2023-04-28T17:37:49.596Z,101378.00
2023-04-28T17:40:16.194Z,101372.00
2023-04-28T17:42:43.308Z,101373.00
2023-04-28T17:45:10.904Z,101375.00
2023-04-28T17:47:37.852Z,101379.00
2023-04-28T17:50:06.600Z,101377.00
2023-04-28T17:52:33.329Z,101387.00
2023-04-28T17:54:59.936Z,101383.00
2023-04-28T17:57:26.545Z,101386.00
2023-04-28T17:59:53.324Z,101387.00
2023-04-28T18:02:20.176Z,101384.00
2023-04-28T18:04:47.011Z,101392.00
2023-04-28T18:07:13.632Z,101389.00
2023-04-28T18:09:40.252Z,101387.00
2023-04-28T18:12:07.091Z,101388.00
2023-04-28T18:14:33.797Z,101390.00
2023-04-28T18:17:00.466Z,101403.00
2023-04-28T18:19:28.188Z,101402.00
2023-04-28T18:21:57.125Z,101406.00
2023-04-28T18:24:24.580Z,101408.00
2023-04-28T18:26:51.281Z,101417.00
2023-04-28T18:29:18.892Z,101421.00
2023-04-28T18:31:46.293Z,101419.00
2023-04-28T18:34:13.320Z,101425.00
2023-04-28T18:36:40.121Z,101432.00
2023-04-28T18:39:08.717Z,101430.00
2023-04-28T18:41:36.604Z,101439.00
2023-04-28T18:44:03.456Z,101445.00
2023-04-28T18:46:30.385Z,101438.00
2023-04-28T18:48:57.035Z,101439.00
2023-04-28T18:51:23.698Z,101449.00
2023-04-28T18:53:50.334Z,101457.00
2023-04-28T18:56:17.302Z,101448.00
2023-04-28T18:58:44.066Z,101454.00
2023-04-28T19:01:15.908Z,101445.00
2023-04-28T19:03:43.075Z,101457.00
2023-04-28T19:06:11.028Z,101456.00
2023-04-28T19:08:41.443Z,101455.00
2023-04-28T19:11:09.570Z,101456.00
2023-04-28T19:13:37.583Z,101465.00
2023-04-28T19:16:05.069Z,101471.00
2023-04-28T19:18:33.156Z,101477.00
2023-04-28T19:21:04.298Z,101490.00
2023-04-28T19:23:32.417Z,101493.00
2023-04-28T19:26:00.292Z,101490.00
2023-04-28T19:28:27.174Z,101494.00
2023-04-28T19:30:54.876Z,101501.00
2023-04-28T19:33:27.810Z,101499.00
2023-04-28T19:35:55.061Z,101498.00
2023-04-28T19:38:23.223Z,101508.00
2023-04-28T19:40:51.057Z,101512.00
2023-04-28T19:43:18.110Z,101519.00
2023-04-28T19:45:46.685Z,101519.00
2023-04-28T19:48:14.476Z,101527.00
2023-04-28T19:50:42.099Z,101535.00
2023-04-28T19:53:09.447Z,101535.00
2023-04-28T19:55:36.888Z,101545.00
2023-04-28T19:58:04.138Z,101548.00
2023-04-28T20:00:32.468Z,101546.00
2023-04-28T20:03:00.046Z,101555.00
2023-04-28T20:05:27.217Z,101562.00
2023-04-28T20:07:56.243Z,101569.00
2023-04-28T20:10:23.840Z,101569.00
2023-04-28T20:12:50.469Z,101573.00
2023-04-28T20:15:18.301Z,101567.00
2023-04-28T20:17:45.997Z,101562.00
2023-04-28T20:20:12.973Z,101572.00
2023-04-28T20:22:41.036Z,101564.00
2023-04-28T20:25:10.323Z,101567.00
2023-04-28T20:27:37.186Z,101576.00
2023-04-28T20:30:04.480Z,101563.00
2023-04-28T20:32:31.310Z,101570.00
2023-04-28T20:34:58.018Z,101577.00
2023-04-28T20:37:26.438Z,101576.00
2023-04-28T20:39:53.227Z,101576.00
2023-04-28T20:42:19.866Z,101585.00
2023-04-28T20:44:46.659Z,101588.00
2023-04-28T20:47:14.200Z,101582.00
2023-04-28T20:49:41.925Z,101586.00
2023-04-28T20:52:08.720Z,101587.00
2023-04-28T20:54:38.563Z,101578.00
2023-04-28T20:57:05.253Z,101588.00
2023-04-28T20:59:32.963Z,101585.00
2023-04-28T21:02:00.343Z,101587.00
2023-04-28T21:04:28.228Z,101587.00
2023-04-28T21:06:55.696Z,101594.00
2023-04-28T21:09:25.002Z,101595.00
2023-04-28T21:11:51.809Z,101594.00
2023-04-28T21:14:18.478Z,101597.00
2023-04-28T21:16:45.144Z,101592.00
2023-04-28T21:19:11.783Z,101593.00
2023-04-28T21:21:38.795Z,101596.00
2023-04-28T21:24:06.319Z,101602.00
2023-04-28T21:26:33.143Z,101609.00
2023-04-28T21:28:59.943Z,101596.00
2023-04-28T21:31:26.739Z,101603.00
2023-04-28T21:33:53.621Z,101607.00
2023-04-28T21:36:20.292Z,101616.00
2023-04-28T21:38:46.990Z,101613.00
2023-04-28T21:41:13.652Z,101624.00
2023-04-28T21:43:40.557Z,101621.00
2023-04-28T21:46:07.284Z,101624.00
2023-04-28T21:48:34.130Z,101619.00
2023-04-28T21:51:01.621Z,101638.00
2023-04-28T21:53:28.991Z,101628.00
2023-04-28T21:55:55.594Z,101639.00
2023-04-28T21:58:22.336Z,101631.00
2023-04-28T22:00:49.224Z,101635.00
2023-04-28T22:03:16.494Z,101639.00
2023-04-28T22:05:44.822Z,101643.00
2023-04-28T22:08:11.945Z,101645.00
2023-04-28T22:10:38.852Z,101643.00
2023-04-28T22:13:06.602Z,101648.00
2023-04-28T22:15:33.621Z,101651.00
2023-04-28T22:18:00.432Z,101654.00
2023-04-28T22:20:27.265Z,101655.00
2023-04-28T22:22:54.282Z,101647.00
2023-04-28T22:25:21.333Z,101650.00
2023-04-28T22:27:47.998Z,101648.00
2023-04-28T22:30:14.755Z,101646.00
2023-04-28T22:32:44.915Z,101649.00
2023-04-28T22:35:12.730Z,101649.00
2023-04-28T22:37:39.881Z,101648.00
2023-04-28T22:40:08.507Z,101647.00
2023-04-28T22:42:39.708Z,101652.00
2023-04-28T22:45:06.838Z,101653.00
2023-04-28T22:47:34.622Z,101655.00
2023-04-28T22:50:03.984Z,101657.00
2023-04-28T22:52:30.591Z,101653.00
2023-04-28T22:54:57.570Z,101659.00
2023-04-28T22:57:24.537Z,101666.00
2023-04-28T22:59:51.413Z,101677.00
2023-04-28T23:02:18.232Z,101671.00
2023-04-28T23:04:44.931Z,101671.00
2023-04-28T23:07:11.607Z,101670.00
2023-04-28T23:09:38.619Z,101670.00
2023-04-28T23:12:05.390Z,101674.00
2023-04-28T23:14:32.865Z,101670.00
2023-04-28T23:16:59.969Z,101682.00
2023-04-28T23:19:26.668Z,101677.00
2023-04-28T23:21:54.517Z,101682.00
2023-04-28T23:24:21.185Z,101686.00
2023-04-28T23:26:47.902Z,101680.00
2023-04-28T23:29:14.712Z,101682.00
2023-04-28T23:31:41.589Z,101692.00
2023-04-28T23:34:08.917Z,101690.00
2023-04-28T23:36:36.463Z,101687.00
2023-04-28T23:39:03.173Z,101682.00
2023-04-28T23:41:29.835Z,101687.00
2023-04-28T23:43:56.914Z,101682.00
2023-04-28T23:46:24.004Z,101689.00
2023-04-28T23:48:50.971Z,101689.00
2023-04-28T23:51:18.004Z,101688.00
2023-04-28T23:53:44.916Z,101685.00
2023-04-28T23:56:11.703Z,101690.00
2023-04-28T23:58:39.922Z,101688.00
